createdAt,value
2022-11-20T00:01:16.513Z,51.54
2022-11-20T00:03:43.199Z,51.77
2022-11-20T00:06:12.289Z,51.88
2022-11-20T00:08:38.875Z,51.68
2022-11-20T00:11:16.906Z,51.76
2022-11-20T00:13:44.485Z,51.78
2022-11-20T00:16:12.821Z,51.47
2022-11-20T00:18:39.499Z,51.81
2022-11-20T00:21:08.671Z,51.79
2022-11-20T00:23:35.659Z,51.47
2022-11-20T00:26:06.800Z,51.49
2022-11-20T00:28:33.328Z,51.45
2022-11-20T00:31:07.944Z,51.48
2022-11-20T00:33:34.547Z,51.48
2022-11-20T00:36:05.880Z,51.97
2022-11-20T00:38:32.919Z,51.64
2022-11-20T00:41:00.751Z,51.71
2022-11-20T00:43:27.955Z,51.38
2022-11-20T00:46:07.963Z,51.33
2022-11-20T00:48:34.515Z,51.24
2022-11-20T00:51:01.128Z,51.13
2022-11-20T00:53:28.096Z,51.14
2022-11-20T00:55:58.960Z,51.48
2022-11-20T00:58:29.215Z,51.26
2022-11-20T01:01:01.141Z,51.30
2022-11-20T01:03:27.716Z,51.37
2022-11-20T01:05:54.259Z,51.25
2022-11-20T01:08:20.801Z,51.26
2022-11-20T01:10:47.349Z,51.27
2022-11-20T01:13:32.236Z,51.01
2022-11-20T01:16:13.142Z,51.40
2022-11-20T01:18:42.716Z,51.27
2022-11-20T01:21:34.085Z,51.28
2022-11-20T01:24:01.105Z,51.30
2022-11-20T01:26:29.762Z,51.41
2022-11-20T01:28:56.922Z,51.26
2022-11-20T01:31:24.593Z,51.35
2022-11-20T01:33:53.099Z,51.25
2022-11-20T01:36:20.843Z,51.43
2022-11-20T01:38:47.581Z,51.48
2022-11-20T01:41:33.955Z,51.58
2022-11-20T01:44:01.129Z,51.63
2022-11-20T01:46:28.269Z,51.43
2022-11-20T01:49:06.742Z,51.36
2022-11-20T01:51:51.118Z,51.32
2022-11-20T01:54:25.354Z,51.49
2022-11-20T01:56:53.703Z,51.31
2022-11-20T01:59:21.046Z,51.40
2022-11-20T02:01:48.087Z,51.21
2022-11-20T02:04:14.995Z,51.27
2022-11-20T02:06:45.804Z,51.38
2022-11-20T02:09:12.770Z,51.21
2022-11-20T02:11:39.371Z,51.24
2022-11-20T02:14:05.904Z,51.20
2022-11-20T02:16:35.542Z,51.21
2022-11-20T02:19:03.758Z,51.42
2022-11-20T02:21:50.372Z,51.37
2022-11-20T02:24:18.716Z,51.59
2022-11-20T02:26:52.541Z,51.66
2022-11-20T02:29:28.008Z,51.29
2022-11-20T02:31:56.210Z,51.49
2022-11-20T02:34:22.795Z,51.34
2022-11-20T02:36:50.918Z,51.50
2022-11-20T02:39:20.460Z,51.24
2022-11-20T02:41:47.512Z,51.46
2022-11-20T02:44:14.111Z,51.21
2022-11-20T02:46:40.834Z,51.29
2022-11-20T02:49:07.439Z,51.47
2022-11-20T02:51:34.001Z,51.15
2022-11-20T02:54:00.647Z,51.37
2022-11-20T02:56:27.199Z,51.16
2022-11-20T02:58:53.819Z,51.42
2022-11-20T03:01:20.436Z,51.40
2022-11-20T03:03:49.449Z,51.32
2022-11-20T03:06:17.558Z,51.42
2022-11-20T03:08:44.211Z,51.30
2022-11-20T03:11:10.887Z,51.30
2022-11-20T03:13:37.466Z,51.14
2022-11-20T03:16:14.803Z,50.96
2022-11-20T03:18:42.291Z,51.03
2022-11-20T03:21:10.212Z,50.89
2022-11-20T03:23:37.392Z,50.70
2022-11-20T03:26:20.011Z,51.13
2022-11-20T03:28:57.438Z,51.31
2022-11-20T03:31:35.711Z,51.02
2022-11-20T03:34:02.671Z,51.08
2022-11-20T03:36:29.410Z,51.11
2022-11-20T03:38:57.038Z,50.93
2022-11-20T03:41:26.570Z,51.00
2022-11-20T03:43:57.225Z,50.93
2022-11-20T03:46:24.187Z,50.98
2022-11-20T03:48:52.149Z,51.25
2022-11-20T03:51:33.486Z,51.36
2022-11-20T03:54:02.498Z,51.39
2022-11-20T03:56:36.296Z,51.00
2022-11-20T03:59:03.270Z,50.94
2022-11-20T04:01:32.650Z,51.16
2022-11-20T04:03:59.569Z,50.98
2022-11-20T04:06:29.090Z,51.04
2022-11-20T04:08:56.780Z,51.36
2022-11-20T04:11:25.351Z,51.05
2022-11-20T04:13:54.361Z,51.13
2022-11-20T04:16:21.979Z,51.20
2022-11-20T04:18:48.568Z,51.21
2022-11-20T04:21:15.091Z,51.06
2022-11-20T04:23:41.684Z,51.38
2022-11-20T04:26:09.131Z,51.05
2022-11-20T04:28:36.138Z,51.31
2022-11-20T04:31:07.039Z,51.12
2022-11-20T04:33:34.674Z,51.07
2022-11-20T04:36:03.442Z,51.01
2022-11-20T04:38:30.098Z,51.31
2022-11-20T04:40:58.767Z,51.10
2022-11-20T04:43:25.331Z,51.31
2022-11-20T04:45:56.094Z,51.12
2022-11-20T04:48:23.279Z,51.33
2022-11-20T04:50:49.921Z,51.25
2022-11-20T04:53:16.495Z,50.99
2022-11-20T04:55:43.058Z,51.00
2022-11-20T04:58:09.613Z,50.97
2022-11-20T05:00:36.377Z,51.00
2022-11-20T05:03:02.915Z,50.99
2022-11-20T05:05:29.449Z,51.09
2022-11-20T05:07:59.527Z,50.81
2022-11-20T05:10:28.096Z,51.06
2022-11-20T05:12:54.735Z,51.01
2022-11-20T05:15:21.363Z,50.90
2022-11-20T05:17:49.781Z,51.13
2022-11-20T05:20:16.483Z,51.02
2022-11-20T05:22:43.423Z,51.10
2022-11-20T05:25:10.110Z,51.22
2022-11-20T05:27:36.664Z,51.08
2022-11-20T05:30:04.683Z,51.10
2022-11-20T05:32:31.240Z,51.13
2022-11-20T05:34:57.868Z,51.21
2022-11-20T05:37:24.464Z,51.09
2022-11-20T05:39:50.991Z,51.00
2022-11-20T05:42:32.983Z,51.06
2022-11-20T05:45:00.977Z,51.00
2022-11-20T05:47:28.656Z,51.15
2022-11-20T05:49:55.246Z,50.69
2022-11-20T05:52:21.790Z,51.11
2022-11-20T05:54:48.366Z,51.32
2022-11-20T05:57:14.935Z,51.15
2022-11-20T05:59:41.518Z,51.02
2022-11-20T06:02:08.073Z,51.01
2022-11-20T06:04:34.644Z,50.98
2022-11-20T06:07:01.243Z,51.19
2022-11-20T06:09:27.872Z,51.07
2022-11-20T06:11:54.446Z,51.28
2022-11-20T06:14:21.023Z,51.50
2022-11-20T06:16:47.620Z,51.49
2022-11-20T06:19:14.174Z,51.77
2022-11-20T06:21:40.726Z,51.55
2022-11-20T06:24:07.670Z,51.61
2022-11-20T06:26:34.280Z,51.29
2022-11-20T06:29:00.852Z,51.12
2022-11-20T06:31:27.556Z,51.38
2022-11-20T06:33:54.138Z,51.43
2022-11-20T06:36:22.723Z,50.99
2022-11-20T06:38:49.667Z,51.16
2022-11-20T06:41:18.434Z,50.66
2022-11-20T06:43:45.227Z,50.28
2022-11-20T06:46:14.067Z,50.15
2022-11-20T06:48:40.870Z,49.74
2022-11-20T06:51:08.862Z,49.82
2022-11-20T06:53:36.071Z,49.90
2022-11-20T06:56:02.613Z,49.58
2022-11-20T06:58:31.007Z,49.82
2022-11-20T07:01:01.824Z,49.93
2022-11-20T07:03:28.475Z,50.19
2022-11-20T07:05:59.159Z,49.80
2022-11-20T07:08:25.896Z,50.09
2022-11-20T07:10:52.461Z,49.66
2022-11-20T07:13:19.010Z,49.49
2022-11-20T07:15:45.575Z,49.43
2022-11-20T07:18:12.194Z,49.31
2022-11-20T07:20:38.760Z,49.20
2022-11-20T07:23:05.297Z,49.26
2022-11-20T07:25:31.938Z,49.23
2022-11-20T07:27:59.617Z,49.16
2022-11-20T07:30:26.691Z,49.15
2022-11-20T07:32:53.771Z,49.08
2022-11-20T07:35:20.755Z,49.12
2022-11-20T07:37:48.262Z,49.33
2022-11-20T07:40:15.499Z,49.41
2022-11-20T07:42:55.860Z,49.21
2022-11-20T07:45:24.179Z,49.14
2022-11-20T07:47:50.904Z,49.06
2022-11-20T07:50:17.917Z,49.15
2022-11-20T07:52:44.723Z,49.03
2022-11-20T07:55:11.582Z,48.86
2022-11-20T07:57:38.190Z,49.23
2022-11-20T08:00:06.040Z,49.13
2022-11-20T08:02:32.583Z,49.01
2022-11-20T08:04:59.139Z,48.83
2022-11-20T08:07:25.753Z,48.34
2022-11-20T08:09:52.305Z,48.15
2022-11-20T08:12:38.603Z,48.07
2022-11-20T08:15:11.333Z,47.69
2022-11-20T08:17:39.574Z,47.64
2022-11-20T08:20:06.323Z,47.42
2022-11-20T08:22:33.166Z,47.40
2022-11-20T08:24:59.793Z,47.18
2022-11-20T08:27:26.350Z,47.11
2022-11-20T08:29:52.920Z,46.95
2022-11-20T08:32:19.503Z,46.77
2022-11-20T08:34:46.115Z,46.86
2022-11-20T08:37:12.679Z,46.91
2022-11-20T08:39:39.323Z,47.15
2022-11-20T08:42:09.221Z,46.96
2022-11-20T08:44:35.791Z,47.26
2022-11-20T08:47:02.331Z,47.35
2022-11-20T08:49:28.891Z,47.48
2022-11-20T08:51:56.291Z,48.56
2022-11-20T08:54:23.625Z,49.01
2022-11-20T08:56:50.156Z,49.11
2022-11-20T08:59:27.364Z,49.27
2022-11-20T09:02:03.213Z,49.20
2022-11-20T09:04:29.750Z,49.44
2022-11-20T09:06:56.319Z,49.20
2022-11-20T09:09:23.419Z,49.22
2022-11-20T09:11:51.011Z,49.52
2022-11-20T09:14:17.586Z,49.39
2022-11-20T09:16:46.089Z,49.28
2022-11-20T09:19:34.476Z,49.25
2022-11-20T09:22:00.989Z,49.35
2022-11-20T09:24:28.123Z,49.23
2022-11-20T09:26:54.723Z,49.02
2022-11-20T09:29:21.395Z,49.20
2022-11-20T09:31:48.087Z,49.14
2022-11-20T09:34:14.619Z,49.06
2022-11-20T09:36:41.188Z,49.19
2022-11-20T09:39:07.790Z,48.99
2022-11-20T09:41:56.154Z,48.73
2022-11-20T09:44:48.755Z,49.12
2022-11-20T09:47:24.338Z,48.85
2022-11-20T09:50:13.859Z,49.02
2022-11-20T09:53:09.143Z,49.11
2022-11-20T09:55:37.203Z,48.95
2022-11-20T09:58:07.167Z,49.28
2022-11-20T10:00:35.393Z,48.88
2022-11-20T10:03:11.004Z,49.03
2022-11-20T10:05:45.339Z,49.28
2022-11-20T10:08:19.906Z,49.31
2022-11-20T10:10:52.587Z,49.29
2022-11-20T10:13:35.548Z,49.19
2022-11-20T10:16:20.697Z,49.21
2022-11-20T10:19:14.913Z,49.55
2022-11-20T10:22:08.355Z,48.88
2022-11-20T10:24:46.092Z,49.06
2022-11-20T10:27:27.666Z,49.44
2022-11-20T10:30:02.610Z,49.40
2022-11-20T10:32:40.809Z,49.02
2022-11-20T10:35:30.196Z,48.99
2022-11-20T10:38:00.101Z,48.89
2022-11-20T10:40:39.519Z,48.86
2022-11-20T10:43:13.578Z,48.58
2022-11-20T10:45:58.395Z,48.34
2022-11-20T10:48:27.060Z,48.27
2022-11-20T10:51:12.060Z,48.05
2022-11-20T10:53:59.114Z,48.08
2022-11-20T10:56:39.959Z,48.11
2022-11-20T10:59:25.001Z,48.08
2022-11-20T11:01:51.625Z,47.67
2022-11-20T11:04:33.260Z,47.37
2022-11-20T11:07:17.129Z,47.49
2022-11-20T11:10:33.168Z,47.63
2022-11-20T11:12:59.702Z,47.70
2022-11-20T11:15:41.154Z,47.83
2022-11-20T11:18:11.918Z,47.63
2022-11-20T11:20:38.829Z,47.68
2022-11-20T11:23:08.151Z,47.69
2022-11-20T11:25:37.968Z,48.09
2022-11-20T11:28:20.751Z,47.46
2022-11-20T11:30:50.198Z,46.81
2022-11-20T11:33:24.999Z,46.69
2022-11-20T11:36:02.402Z,46.40
2022-11-20T11:38:33.843Z,46.66
2022-11-20T11:41:00.500Z,46.62
2022-11-20T11:43:49.493Z,46.51
2022-11-20T11:46:25.171Z,46.44
2022-11-20T11:49:09.732Z,46.54
2022-11-20T11:51:54.128Z,46.88
2022-11-20T11:54:25.059Z,47.23
2022-11-20T11:56:52.167Z,47.23
2022-11-20T11:59:39.604Z,47.38
2022-11-20T12:02:20.549Z,47.94
2022-11-20T12:05:06.349Z,48.71
2022-11-20T12:07:49.368Z,48.67
2022-11-20T12:10:22.111Z,48.83
2022-11-20T12:13:02.032Z,49.05
2022-11-20T12:15:34.583Z,48.93
2022-11-20T12:18:01.783Z,48.96
2022-11-20T12:20:37.069Z,49.23
2022-11-20T12:23:18.972Z,48.54
2022-11-20T12:25:49.225Z,48.03
2022-11-20T12:28:19.274Z,48.13
2022-11-20T12:31:04.074Z,48.25
2022-11-20T12:33:51.879Z,48.18
2022-11-20T12:37:00.186Z,47.74
2022-11-20T12:39:58.863Z,48.35
2022-11-20T12:42:51.835Z,48.51
2022-11-20T12:45:53.922Z,48.41
2022-11-20T12:48:20.415Z,48.72
2022-11-20T12:51:18.519Z,48.58
2022-11-20T12:53:57.236Z,49.06
2022-11-20T12:56:30.363Z,49.16
2022-11-20T12:59:10.835Z,49.03
2022-11-20T13:01:52.551Z,49.27
2022-11-20T13:04:29.411Z,49.34
2022-11-20T13:06:56.195Z,49.28
2022-11-20T13:09:23.828Z,49.32
2022-11-20T13:12:02.300Z,49.07
2022-11-20T13:15:00.250Z,49.11
2022-11-20T13:17:31.900Z,48.82
2022-11-20T13:19:59.746Z,49.00
2022-11-20T13:22:30.888Z,48.99
2022-11-20T13:24:57.473Z,49.31
2022-11-20T13:27:25.011Z,49.37
2022-11-20T13:30:16.271Z,49.22
2022-11-20T13:32:52.699Z,49.14
2022-11-20T13:35:28.222Z,49.66
2022-11-20T13:38:12.310Z,49.23
2022-11-20T13:40:40.704Z,49.28
2022-11-20T13:43:16.842Z,48.96
2022-11-20T13:45:43.394Z,48.87
2022-11-20T13:48:36.192Z,48.74
2022-11-20T13:51:02.674Z,48.45
2022-11-20T13:53:43.480Z,48.31
2022-11-20T13:56:26.447Z,47.92
2022-11-20T13:59:19.267Z,48.14
2022-11-20T14:01:46.961Z,48.36
2022-11-20T14:04:25.159Z,48.41
2022-11-20T14:06:52.094Z,48.01
2022-11-20T14:09:32.953Z,48.16
2022-11-20T14:12:00.050Z,48.24
2022-11-20T14:14:28.207Z,48.00
2022-11-20T14:17:09.212Z,48.11
2022-11-20T14:19:38.139Z,48.32
2022-11-20T14:22:30.803Z,48.32
2022-11-20T14:25:06.151Z,48.34
2022-11-20T14:27:35.951Z,48.60
2022-11-20T14:30:03.781Z,48.37
2022-11-20T14:32:32.004Z,48.63
2022-11-20T14:35:08.536Z,48.39
2022-11-20T14:37:38.546Z,48.20
2022-11-20T14:40:23.405Z,48.13
2022-11-20T14:42:49.926Z,48.34
2022-11-20T14:45:16.600Z,48.51
2022-11-20T14:47:43.592Z,48.67
2022-11-20T14:50:22.000Z,48.93
2022-11-20T14:52:53.033Z,48.79
2022-11-20T14:55:30.460Z,48.91
2022-11-20T14:57:59.422Z,48.50
2022-11-20T15:00:26.205Z,48.50
2022-11-20T15:02:53.272Z,48.25
2022-11-20T15:05:22.221Z,48.37
2022-11-20T15:07:51.868Z,48.63
2022-11-20T15:10:25.229Z,48.44
2022-11-20T15:12:54.311Z,48.90
2022-11-20T15:15:33.803Z,48.93
2022-11-20T15:18:00.830Z,49.43
2022-11-20T15:20:30.200Z,49.33
2022-11-20T15:22:56.748Z,49.63
2022-11-20T15:25:25.525Z,49.75
2022-11-20T15:27:58.146Z,50.40
2022-11-20T15:30:25.011Z,50.16
2022-11-20T15:32:51.610Z,50.32
2022-11-20T15:35:18.172Z,50.33
2022-11-20T15:37:44.891Z,50.27
2022-11-20T15:40:11.811Z,50.10
2022-11-20T15:42:38.343Z,50.16
2022-11-20T15:45:05.259Z,50.60
2022-11-20T15:47:34.969Z,50.31
2022-11-20T15:50:01.738Z,50.47
2022-11-20T15:52:30.574Z,50.34
2022-11-20T15:55:08.278Z,50.49
2022-11-20T15:57:36.226Z,50.33
2022-11-20T16:00:03.616Z,50.18
2022-11-20T16:02:30.183Z,50.19
2022-11-20T16:04:56.727Z,50.59
2022-11-20T16:07:23.338Z,50.53
2022-11-20T16:09:49.909Z,50.82
2022-11-20T16:12:36.438Z,50.72
2022-11-20T16:15:21.902Z,50.63
2022-11-20T16:17:48.454Z,50.98
2022-11-20T16:20:15.020Z,51.02
2022-11-20T16:22:41.563Z,50.88
2022-11-20T16:25:08.261Z,50.92
2022-11-20T16:27:34.836Z,50.77
2022-11-20T16:30:01.364Z,50.58
2022-11-20T16:32:27.908Z,50.53
2022-11-20T16:34:54.464Z,50.33
2022-11-20T16:37:21.085Z,50.42
2022-11-20T16:39:47.627Z,50.42
2022-11-20T16:42:14.196Z,50.09
2022-11-20T16:44:40.799Z,50.35
2022-11-20T16:47:07.747Z,50.13
2022-11-20T16:49:34.348Z,50.17
2022-11-20T16:52:00.910Z,50.06
2022-11-20T16:54:27.610Z,50.21
2022-11-20T16:56:54.332Z,50.00
2022-11-20T16:59:21.018Z,50.09
2022-11-20T17:01:47.633Z,50.89
2022-11-20T17:04:14.665Z,50.73
2022-11-20T17:06:44.187Z,50.87
2022-11-20T17:09:11.079Z,50.60
2022-11-20T17:11:37.728Z,50.98
2022-11-20T17:14:07.399Z,50.55
2022-11-20T17:16:35.784Z,50.96
2022-11-20T17:19:03.875Z,51.03
2022-11-20T17:21:31.515Z,51.01
2022-11-20T17:24:02.299Z,51.17
2022-11-20T17:26:29.141Z,50.97
2022-11-20T17:28:59.934Z,51.02
2022-11-20T17:31:27.282Z,50.81
2022-11-20T17:33:54.107Z,50.77
2022-11-20T17:36:20.904Z,51.50
2022-11-20T17:38:47.656Z,50.96
2022-11-20T17:41:16.359Z,51.45
2022-11-20T17:43:43.610Z,51.04
2022-11-20T17:46:12.300Z,50.76
2022-11-20T17:48:42.340Z,50.97
2022-11-20T17:53:39.843Z,51.26
2022-11-20T17:56:25.190Z,51.18
2022-11-20T17:58:51.787Z,51.17
2022-11-20T18:01:19.122Z,50.68
2022-11-20T18:03:45.882Z,50.49
2022-11-20T18:06:14.563Z,50.22
2022-11-20T18:08:41.980Z,50.06
2022-11-20T18:11:12.910Z,49.68
2022-11-20T18:13:59.003Z,49.67
2022-11-20T18:16:25.859Z,49.83
2022-11-20T18:18:56.459Z,49.50
2022-11-20T18:21:23.903Z,49.21
2022-11-20T18:23:50.767Z,48.83
2022-11-20T18:26:18.415Z,48.80
2022-11-20T18:28:45.834Z,48.66
2022-11-20T18:31:13.189Z,48.48
2022-11-20T18:33:40.068Z,48.87
2022-11-20T18:36:21.172Z,48.91
2022-11-20T18:38:49.588Z,48.70
2022-11-20T18:41:36.983Z,48.82
2022-11-20T18:44:23.749Z,48.83
2022-11-20T18:46:50.703Z,48.38
2022-11-20T18:49:17.390Z,48.74
2022-11-20T18:51:44.393Z,48.36
2022-11-20T18:54:12.050Z,48.37
2022-11-20T18:56:39.313Z,48.46
2022-11-20T18:59:07.397Z,48.26
2022-11-20T19:01:34.459Z,48.50
2022-11-20T19:04:01.083Z,48.59
2022-11-20T19:06:27.668Z,48.77
2022-11-20T19:08:54.730Z,48.46
2022-11-20T19:11:21.276Z,49.17
2022-11-20T19:13:47.870Z,49.01
2022-11-20T19:16:20.331Z,48.91
2022-11-20T19:18:48.404Z,49.08
2022-11-20T19:21:17.636Z,49.03
2022-11-20T19:23:48.200Z,49.34
2022-11-20T19:26:15.411Z,49.24
2022-11-20T19:28:41.991Z,49.33
2022-11-20T19:31:24.289Z,49.67
2022-11-20T19:33:55.907Z,49.67
2022-11-20T19:36:27.867Z,49.56
2022-11-20T19:38:54.807Z,49.21
2022-11-20T19:41:29.099Z,49.34
2022-11-20T19:44:00.281Z,49.24
2022-11-20T19:46:28.656Z,49.34
2022-11-20T19:48:56.024Z,49.17
2022-11-20T19:51:27.262Z,49.26
2022-11-20T19:53:55.873Z,49.37
2022-11-20T19:56:22.862Z,49.33
2022-11-20T19:58:49.450Z,49.22
2022-11-20T20:01:20.876Z,49.29
2022-11-20T20:03:48.072Z,49.18
2022-11-20T20:06:20.564Z,49.42
2022-11-20T20:08:48.147Z,49.45
2022-11-20T20:11:17.091Z,49.00
2022-11-20T20:13:44.514Z,48.91
2022-11-20T20:16:16.327Z,48.94
2022-11-20T20:18:43.335Z,48.93
2022-11-20T20:21:12.393Z,48.88
2022-11-20T20:23:39.436Z,48.79
2022-11-20T20:26:07.583Z,48.57
2022-11-20T20:28:35.165Z,48.49
2022-11-20T20:31:09.426Z,48.72
2022-11-20T20:33:37.246Z,48.61
2022-11-20T20:36:05.315Z,48.65
2022-11-20T20:38:31.943Z,48.61
2022-11-20T20:40:58.514Z,48.57
2022-11-20T20:43:25.455Z,48.92
2022-11-20T20:45:52.367Z,48.61
2022-11-20T20:48:21.315Z,48.70
2022-11-20T20:50:58.856Z,48.56
2022-11-20T20:53:25.450Z,48.73
2022-11-20T20:55:55.657Z,48.67
2022-11-20T20:58:22.516Z,48.49
2022-11-20T21:00:49.084Z,48.41
2022-11-20T21:03:15.685Z,48.60
2022-11-20T21:05:42.207Z,48.50
2022-11-20T21:08:25.288Z,48.49
2022-11-20T21:10:53.536Z,48.65
2022-11-20T21:13:21.126Z,48.70
2022-11-20T21:15:49.594Z,48.68
2022-11-20T21:18:17.968Z,49.22
2022-11-20T21:21:04.356Z,49.39
2022-11-20T21:23:31.099Z,49.76
2022-11-20T21:26:00.818Z,49.73
2022-11-20T21:28:27.360Z,49.84
2022-11-20T21:30:53.902Z,50.13
2022-11-20T21:33:20.480Z,50.26
2022-11-20T21:35:47.040Z,50.22
2022-11-20T21:38:13.607Z,50.26
2022-11-20T21:40:40.166Z,50.44
2022-11-20T21:43:06.766Z,50.13
2022-11-20T21:45:33.308Z,50.55
2022-11-20T21:47:59.911Z,51.09
2022-11-20T21:50:26.443Z,51.08
2022-11-20T21:52:52.986Z,51.18
2022-11-20T21:55:19.534Z,51.31
2022-11-20T21:57:46.076Z,51.33
2022-11-20T22:00:13.129Z,51.08
2022-11-20T22:02:40.422Z,51.28
2022-11-20T22:05:07.889Z,51.27
2022-11-20T22:07:35.295Z,51.10
2022-11-20T22:10:01.951Z,51.10
2022-11-20T22:12:28.511Z,51.04
2022-11-20T22:14:55.071Z,51.20
2022-11-20T22:17:41.601Z,51.24
2022-11-20T22:20:09.136Z,51.24
2022-11-20T22:22:35.677Z,51.22
2022-11-20T22:25:04.623Z,51.42
2022-11-20T22:27:31.307Z,51.36
2022-11-20T22:29:57.827Z,51.02
2022-11-20T22:32:24.381Z,51.05
2022-11-20T22:34:50.918Z,50.79
2022-11-20T22:37:17.602Z,51.24
2022-11-20T22:39:44.155Z,51.19
2022-11-20T22:42:10.734Z,51.09
2022-11-20T22:44:37.272Z,51.24
2022-11-20T22:47:08.686Z,51.04
2022-11-20T22:49:37.759Z,51.02
2022-11-20T22:52:04.382Z,51.01
2022-11-20T22:54:30.923Z,51.04
2022-11-20T22:56:57.514Z,50.78
2022-11-20T22:59:24.095Z,50.74
2022-11-20T23:01:50.691Z,50.88
2022-11-20T23:04:17.304Z,50.81
2022-11-20T23:06:43.847Z,50.79
2022-11-20T23:09:12.732Z,50.76
2022-11-20T23:11:39.329Z,50.64
2022-11-20T23:14:08.222Z,50.78
2022-11-20T23:16:35.187Z,50.79
2022-11-20T23:19:07.271Z,50.69
2022-11-20T23:21:35.183Z,50.91
2022-11-20T23:24:02.161Z,50.69
2022-11-20T23:26:30.835Z,50.85
2022-11-20T23:28:58.863Z,50.74
2022-11-20T23:31:27.234Z,50.70
2022-11-20T23:33:54.083Z,50.68
2022-11-20T23:36:20.663Z,50.80
2022-11-20T23:38:47.259Z,50.85
2022-11-20T23:41:14.395Z,50.85
2022-11-20T23:43:40.994Z,50.85
2022-11-20T23:46:16.803Z,50.94
2022-11-20T23:48:45.092Z,50.78
2022-11-20T23:51:11.944Z,50.75
2022-11-20T23:53:38.627Z,50.86
2022-11-20T23:56:05.704Z,50.99
2022-11-20T23:58:36.956Z,50.86
